Time;durP1;ratioP1;P1;durP2;ratioP2;P2;SDS_P1;SDS_P2;PMS_P1;PMS_P2;Temp;Humidity;BMP_temperature;BMP_pressure;BME280_temperature;BME280_humidity;BME280_pressure;Samples;Min_cycle;Max_cycle;Signal;HPM_P1;HPM_P2
2022/02/19 00:07:39;;;;;;;6.25;1.10;;;6.70;99.90;;;;;;20726487;28;20508;-77
2022/02/19 00:17:40;;;;;;;4.50;1.80;;;6.70;99.90;;;;;;20725570;28;20053;-78
2022/02/19 00:27:41;;;;;;;5.20;0.70;;;6.80;99.90;;;;;;20744562;28;20030;-77
2022/02/19 00:37:44;;;;;;;4.55;0.80;;;6.80;99.90;;;;;;20729958;28;20034;-78
2022/02/19 00:47:45;;;;;;;8.73;1.40;;;6.80;99.90;;;;;;20743541;28;20048;-78
2022/02/19 00:57:46;;;;;;;10.95;1.55;;;6.80;99.90;;;;;;20713201;28;20041;-78
2022/02/19 01:07:47;;;;;;;6.05;1.25;;;6.90;99.90;;;;;;20737123;28;20399;-77
2022/02/19 01:17:49;;;;;;;6.38;1.58;;;6.90;99.90;;;;;;20736024;28;20045;-78
2022/02/19 01:27:50;;;;;;;;;;;6.90;99.90;;;;;;20715696;28;20492;-77
2022/02/19 01:37:51;;;;;;;11.30;2.17;;;6.90;99.90;;;;;;20729506;28;19955;-78
2022/02/19 01:47:53;;;;;;;12.30;1.45;;;6.70;99.90;;;;;;20701077;28;20115;-78
2022/02/19 01:57:56;;;;;;;17.77;1.52;;;6.80;99.90;;;;;;20710317;28;20169;-77
2022/02/19 02:08:21;;;;;;;14.80;1.80;;;6.70;99.90;;;;;;20719556;28;20045;-77
2022/02/19 02:18:23;;;;;;;5.43;1.23;;;6.70;99.90;;;;;;20892013;22;20533;-76
2022/02/19 02:28:24;;;;;;;12.65;1.83;;;6.70;99.90;;;;;;20840279;28;20083;-76
2022/02/19 02:38:25;;;;;;;11.53;2.17;;;6.70;99.90;;;;;;20829345;28;20029;-76
2022/02/19 02:48:26;;;;;;;9.25;1.48;;;6.60;99.90;;;;;;20845492;28;20026;-76
2022/02/19 02:58:28;;;;;;;8.68;1.80;;;5.50;99.90;;;;;;20829182;28;20029;-76
2022/02/19 03:08:31;;;;;;;6.68;1.85;;;4.90;99.90;;;;;;20827095;28;20110;-74
2022/02/19 03:18:32;;;;;;;18.60;2.63;;;4.60;99.90;;;;;;20781293;28;20034;-75
2022/02/19 03:28:36;;;;;;;15.73;2.67;;;4.50;99.90;;;;;;20700846;28;20321;-76
2022/02/19 03:38:37;;;;;;;8.93;1.73;;;4.60;99.90;;;;;;20728273;28;20069;-75
2022/02/19 03:48:43;;;;;;;7.63;1.70;;;4.60;99.90;;;;;;20721077;28;20520;-75
2022/02/19 03:58:46;;;;;;;18.10;1.70;;;4.40;99.90;;;;;;20747979;28;20037;-76
2022/02/19 04:08:47;;;;;;;27.80;5.70;;;4.50;99.90;;;;;;20742106;28;20496;-76
2022/02/19 04:18:48;;;;;;;17.25;3.35;;;4.50;99.90;;;;;;20741644;28;20044;-76
2022/02/19 04:28:51;;;;;;;14.05;1.75;;;4.60;99.90;;;;;;20741541;28;20034;-75
2022/02/19 04:38:58;;;;;;;10.45;2.05;;;4.70;99.90;;;;;;20741017;28;20030;-76
2022/02/19 04:49:02;;;;;;;17.77;2.25;;;4.70;99.90;;;;;;20740545;28;20395;-75
2022/02/19 04:59:04;;;;;;;15.90;1.98;;;4.70;99.90;;;;;;20747259;28;20099;-75
2022/02/19 05:09:11;;;;;;;10.15;2.00;;;4.60;99.90;;;;;;20754777;28;20041;-76
2022/02/19 05:19:20;;;;;;;11.85;2.28;;;4.40;99.90;;;;;;20753889;28;20543;-76
2022/02/19 05:29:20;;;;;;;;;;;4.30;99.90;;;;;;20753917;28;20053;-75
2022/02/19 05:39:22;;;;;;;11.02;1.92;;;4.30;99.90;;;;;;20753439;28;19984;-76
2022/02/19 05:49:25;;;;;;;20.55;2.70;;;4.30;99.90;;;;;;20751633;28;20113;-76
2022/02/19 05:59:58;;;;;;;13.57;2.55;;;4.20;99.90;;;;;;20741358;28;20030;-76
2022/02/19 06:09:59;;;;;;;12.20;1.85;;;4.20;99.90;;;;;;20749144;28;20026;-76
2022/02/19 06:20:01;;;;;;;16.45;3.47;;;4.10;99.90;;;;;;20733256;28;20088;-76
2022/02/19 06:30:02;;;;;;;;;;;4.00;99.90;;;;;;20749021;28;20030;-76
2022/02/19 06:40:15;;;;;;;9.48;2.00;;;4.10;99.90;;;;;;20747662;28;19920;-76
2022/02/19 06:50:17;;;;;;;11.57;2.53;;;4.10;99.90;;;;;;20730699;28;20026;-76
2022/02/19 07:00:20;;;;;;;10.95;2.10;;;4.10;99.90;;;;;;20746137;28;20049;-76
2022/02/19 07:10:28;;;;;;;20.20;3.28;;;4.20;99.90;;;;;;20745540;28;20042;-76
2022/02/19 07:20:35;;;;;;;15.30;2.50;;;4.30;99.90;;;;;;20744791;28;20030;-75
2022/02/19 07:30:38;;;;;;;15.98;2.70;;;4.40;99.90;;;;;;20744231;28;20496;-75
2022/02/19 07:40:40;;;;;;;7.60;1.65;;;4.60;99.90;;;;;;20743439;28;20486;-75
2022/02/19 08:01:16;;;;;;;20.90;2.13;;;4.00;99.90;;;;;;20742586;28;20030;-75
2022/02/19 08:11:21;;;;;;;16.73;2.20;;;4.20;99.90;;;;;;20752856;22;20038;-78
2022/02/19 08:21:24;;;;;;;10.57;2.38;;;4.20;99.90;;;;;;20839739;28;20083;-80
2022/02/19 08:31:25;;;;;;;7.18;2.03;;;4.40;99.90;;;;;;20798822;28;20075;-82
2022/02/19 08:41:26;;;;;;;;;;;4.50;99.90;;;;;;20740995;28;20084;-78
2022/02/19 08:51:27;;;;;;;16.13;2.43;;;4.70;99.90;;;;;;20716415;28;19917;-77
2022/02/19 09:01:28;;;;;;;13.07;2.47;;;5.00;99.90;;;;;;20676122;28;20312;-78
2022/02/19 09:11:29;;;;;;;18.10;3.67;;;6.00;99.90;;;;;;20707642;28;20632;-77
2022/02/19 09:21:31;;;;;;;12.40;2.37;;;6.30;99.90;;;;;;20755770;28;20046;-78
2022/02/19 09:31:32;;;;;;;16.80;2.22;;;6.50;99.90;;;;;;20674031;28;20037;-77
2022/02/19 09:41:33;;;;;;;17.10;1.90;;;6.10;99.90;;;;;;20740757;28;20025;-76
2022/02/19 09:51:35;;;;;;;14.95;2.50;;;6.00;99.90;;;;;;20752040;28;20038;-77
2022/02/19 10:01:36;;;;;;;11.65;2.30;;;6.40;99.90;;;;;;20739396;28;20419;-77
2022/02/19 10:11:38;;;;;;;19.20;3.60;;;7.10;99.90;;;;;;20697765;28;20045;-77
2022/02/19 10:21:39;;;;;;;9.50;1.70;;;7.40;99.90;;;;;;20668971;28;20050;-77
2022/02/19 10:31:39;;;;;;;12.40;1.90;;;8.00;99.90;;;;;;20683734;28;20034;-77
2022/02/19 10:41:42;;;;;;;7.97;1.40;;;8.90;99.90;;;;;;20677259;28;20300;-78
2022/02/19 10:51:44;;;;;;;16.13;2.03;;;9.90;99.90;;;;;;20666792;28;20093;-78
2022/02/19 11:01:47;;;;;;;7.47;1.42;;;9.00;99.90;;;;;;20720102;28;20432;-78
2022/02/19 11:11:49;;;;;;;5.43;1.25;;;9.40;99.90;;;;;;20666198;28;20045;-77
2022/02/19 11:21:54;;;;;;;6.20;1.13;;;10.60;99.90;;;;;;20678473;28;20030;-80
2022/02/19 11:31:56;;;;;;;5.15;1.35;;;11.20;99.90;;;;;;20664226;28;20041;-79
2022/02/19 11:41:57;;;;;;;10.43;1.38;;;11.00;99.90;;;;;;20662735;28;20042;-77
2022/02/19 11:52:04;;;;;;;7.93;1.30;;;11.40;99.90;;;;;;20664773;28;20038;-80
2022/02/19 12:02:18;;;;;;;5.78;1.17;;;11.30;99.90;;;;;;20688786;28;20523;-78
2022/02/19 12:12:19;;;;;;;2.80;1.10;;;11.10;99.90;;;;;;20663114;28;20089;-78
2022/02/19 12:22:36;;;;;;;4.43;1.40;;;11.10;99.90;;;;;;20663593;28;20121;-78
2022/02/19 12:32:44;;;;;;;7.55;1.05;;;10.80;99.90;;;;;;20701884;28;20029;-79
2022/02/19 12:42:49;;;;;;;10.07;1.80;;;11.60;99.90;;;;;;20713364;28;20408;-79
2022/02/19 12:52:51;;;;;;;8.15;1.05;;;10.90;99.90;;;;;;20737884;28;20064;-78
2022/02/19 13:03:04;;;;;;;4.78;1.08;;;11.00;99.90;;;;;;20697083;28;20041;-80
2022/02/19 13:13:21;;;;;;;12.18;1.25;;;11.60;99.90;;;;;;20714410;28;20112;-78
2022/02/19 13:23:29;;;;;;;4.80;1.10;;;11.90;99.90;;;;;;20695358;28;20096;-80
2022/02/19 13:33:30;;;;;;;3.72;1.00;;;11.70;99.90;;;;;;20701090;28;20030;-81
2022/02/19 13:43:30;;;;;;;6.93;1.03;;;11.70;99.90;;;;;;20717546;28;20096;-80
2022/02/19 13:53:38;;;;;;;5.57;1.03;;;11.20;99.90;;;;;;20726312;28;20030;-77
2022/02/19 14:03:53;;;;;;;5.22;0.90;;;12.50;99.90;;;;;;20691339;28;20045;-76
2022/02/19 14:13:54;;;;;;;5.60;0.90;;;12.10;99.90;;;;;;20681401;28;20042;-77
2022/02/19 14:24:06;;;;;;;4.07;1.10;;;12.40;99.90;;;;;;20655740;28;20034;-77
2022/02/19 14:34:07;;;;;;;7.40;1.27;;;12.30;99.90;;;;;;20720603;28;20041;-77
2022/02/19 14:44:08;;;;;;;3.77;0.90;;;11.50;99.90;;;;;;20705574;28;20115;-76
2022/02/19 14:54:08;;;;;;;3.53;0.97;;;11.40;99.90;;;;;;20704793;28;20489;-77
2022/02/19 15:04:09;;;;;;;6.43;1.03;;;12.10;99.90;;;;;;20696067;28;20124;-77
2022/02/19 15:14:11;;;;;;;5.43;1.03;;;11.30;99.90;;;;;;20727064;28;20041;-76
2022/02/19 15:24:12;;;;;;;6.32;0.90;;;12.60;99.90;;;;;;20727326;28;20512;-75
2022/02/19 15:34:14;;;;;;;6.80;1.08;;;12.40;99.90;;;;;;20777123;28;20154;-75
2022/02/19 15:44:15;;;;;;;6.63;1.50;;;10.70;99.90;;;;;;20747857;28;20123;-75
2022/02/19 15:54:16;;;;;;;5.77;0.97;;;11.70;99.90;;;;;;20714793;28;20579;-75
2022/02/19 16:04:17;;;;;;;5.73;1.10;;;11.10;99.90;;;;;;20781379;28;20812;-76
2022/02/19 16:14:18;;;;;;;9.40;2.47;;;10.60;99.90;;;;;;20677514;28;20037;-75
2022/02/19 16:24:19;;;;;;;11.93;2.27;;;9.80;99.90;;;;;;20688106;28;20042;-75
2022/02/19 16:34:20;;;;;;;6.27;1.87;;;9.10;99.90;;;;;;20683392;28;20026;-75
2022/02/19 16:44:21;;;;;;;6.60;2.10;;;8.80;99.90;;;;;;20714039;28;20038;-77
2022/02/19 16:54:21;;;;;;;12.47;3.47;;;8.60;99.90;;;;;;20740451;28;20092;-76
2022/02/19 17:04:22;;;;;;;12.20;5.17;;;8.10;99.90;;;;;;20683278;28;20033;-76
2022/02/19 17:14:23;;;;;;;9.60;4.03;;;8.10;99.90;;;;;;20740610;28;20034;-76
2022/02/19 17:24:24;;;;;;;9.27;2.80;;;7.70;99.90;;;;;;20710067;28;20190;-76
2022/02/19 17:34:25;;;;;;;14.70;6.00;;;7.10;99.90;;;;;;20697436;28;20071;-76
2022/02/19 17:44:26;;;;;;;8.07;3.17;;;7.00;99.90;;;;;;20690084;28;20061;-75
2022/02/19 17:54:27;;;;;;;7.80;1.70;;;6.50;99.90;;;;;;20692442;28;20103;-75
2022/02/19 18:04:27;;;;;;;6.33;1.60;;;6.20;99.90;;;;;;20693138;28;20125;-76
2022/02/19 18:14:28;;;;;;;21.73;2.03;;;6.10;99.90;;;;;;20685953;28;20041;-76
2022/02/19 18:24:29;;;;;;;13.33;3.73;;;5.70;99.90;;;;;;20685844;28;20492;-75
2022/02/19 18:34:30;;;;;;;9.70;2.43;;;5.60;99.90;;;;;;20692305;28;20033;-77
2022/02/19 18:44:31;;;;;;;;;;;5.40;99.90;;;;;;20692670;28;20035;-76
2022/02/19 18:54:32;;;;;;;9.52;2.28;;;5.20;99.90;;;;;;20777567;28;19921;-75
2022/02/19 19:04:33;;;;;;;3.53;1.88;;;5.00;99.90;;;;;;20802598;28;20038;-77
2022/02/19 19:14:33;;;;;;;7.07;2.20;;;4.60;99.90;;;;;;20730306;28;20037;-75
2022/02/19 19:24:35;;;;;;;5.40;2.10;;;4.10;99.90;;;;;;20726490;28;20034;-76
2022/02/19 19:34:35;;;;;;;12.02;2.30;;;4.10;99.90;;;;;;20727080;28;20273;-76
2022/02/19 19:44:36;;;;;;;8.63;2.13;;;4.40;99.90;;;;;;20709234;28;20384;-75
2022/02/19 19:54:37;;;;;;;17.73;5.68;;;4.50;99.90;;;;;;20746968;28;20275;-76
2022/02/19 20:04:39;;;;;;;12.18;3.53;;;4.20;99.90;;;;;;20718905;28;20429;-75
2022/02/19 20:14:40;;;;;;;14.65;3.05;;;4.00;99.90;;;;;;20693991;28;20052;-76
2022/02/19 20:24:41;;;;;;;10.13;2.58;;;4.00;99.90;;;;;;20716898;28;20057;-77
2022/02/19 20:34:42;;;;;;;;;;;4.00;99.90;;;;;;20740232;28;20042;-76
2022/02/19 20:44:43;;;;;;;10.43;2.05;;;3.90;99.90;;;;;;20738406;28;20386;-76
2022/02/19 20:54:44;;;;;;;;;;;3.50;99.90;;;;;;20756752;28;20061;-75
2022/02/19 21:04:45;;;;;;;9.68;1.70;;;3.20;99.90;;;;;;20760052;28;19921;-76
2022/02/19 21:14:46;;;;;;;2.72;1.02;;;3.80;99.90;;;;;;20787761;28;20757;-76
2022/02/19 21:24:46;;;;;;;;;;;4.30;99.90;;;;;;20718357;28;20140;-74
2022/02/19 21:34:47;;;;;;;11.70;1.50;;;4.20;99.90;;;;;;20734390;28;19925;-74
2022/02/19 21:44:48;;;;;;;7.97;1.15;;;4.20;99.90;;;;;;20754776;28;20041;-76
2022/02/19 21:54:50;;;;;;;6.68;1.42;;;4.30;99.90;;;;;;20765934;28;20044;-76
2022/02/19 22:04:51;;;;;;;3.63;1.40;;;4.40;99.90;;;;;;20730371;28;20096;-76
2022/02/19 22:14:53;;;;;;;;;;;4.50;99.90;;;;;;20728667;28;20128;-76
2022/02/19 22:24:54;;;;;;;4.07;1.60;;;4.20;99.90;;;;;;20751551;28;19932;-76
2022/02/19 22:34:55;;;;;;;9.93;1.48;;;3.80;99.90;;;;;;20854306;23;1151832;-74
2022/02/19 22:44:56;;;;;;;;;;;3.80;99.90;;;;;;20864056;28;20031;-75
2022/02/19 22:54:57;;;;;;;5.80;1.50;;;3.80;99.90;;;;;;20869115;28;19995;-75
2022/02/19 23:15:17;;;;;;;6.38;1.67;;;3.90;99.90;;;;;;20828549;28;19917;-75
2022/02/19 23:25:18;;;;;;;7.22;1.48;;;4.00;99.90;;;;;;20828166;28;20037;-76
2022/02/19 23:35:19;;;;;;;;;;;4.30;99.90;;;;;;20826283;28;20151;-75
2022/02/19 23:45:20;;;;;;;5.88;1.23;;;4.50;99.90;;;;;;20826378;28;19913;-75
2022/02/19 23:55:21;;;;;;;9.52;3.10;;;4.30;99.90;;;;;;20826298;28;20025;-75
